Aérodrome :
LOGIN :

S'inscrire | Disclaimer

   EN    FR    IT 

 










Légende :    VFR   VFR Marginal   IFR   IFR Intensif   IFR Très Intensif
Visi : 
Plafond : 
>= 8 km
>= 3000ft
5 à 8 km
1000 à 3000 ft
1500m à 5 km
500 à 1000 ft
800 à 1500m
200 à 500 ft
< 800m
< 200 ft
Symboles :   Orages  Brouillard  Fortes neiges  Fortes précipitations  Vent > 20 kt
SIGMETs :   Divers  Orages  Givrage  Turbulence  Onde Orograph.  Cendres Volcan.






- Altitude de l'aérodrome : 288 ft
- Code IATA : BZZ


EGVN - RAF Brize Norton

DERNIER METAR :
  • 111120Z 05004KT CAVOK 29/17 Q1015 NOSIG RMK BLU BLU

METARs EXPIRÉS :
  • 111050Z 08005KT CAVOK 29/18 Q1015 NOSIG RMK BLU BLU
  • 111020Z 06004KT 9000 HZ FEW140 28/18 Q1015 NOSIG RMK BLU BLU
  • 110950Z 07004KT 9000 HZ FEW140 27/18 Q1015 NOSIG
  • 110920Z 06004KT 9000 HZ FEW140 26/18 Q1015 NOSIG RMK BLU BLU
  • 110850Z 08004KT 9000 HZ SCT140 SCT250 24/18 Q1015 NOSIG RMK BLU BLU

TAF TAF EGVN
Valide du 11 à 12h jusqu'au 12 à 12h UTC


111041Z 1112/1212 07004KT CAVOK
PROB30
TEMPO 1113/1119 VRB15G25KT 3000 +TSRA SCT060CB
PROB40 1202/1209 4000 HZ



MET'MAP, la Météo Aéronautique d'un coup d'oeil ! - Copyright ORBIFLY Décembre 2007 - Disclaimer

ORBIFLY MET'MAP TEAM :

Programmation & Développement : Alexandra Zaïnal
Sur une idée originale de : Baudouin d'Aumeries
Assistance à la programmation : Marc-Olivier Méhu
Soutien technique & logistique : Manuel Goepfert

Contact : metmap@orbifly.com




SOURCES & CREDITS :

   NOAA